sensor_id;sensor_type;location;lat;lon;timestamp;temperature;humidity
53053;DHT22;38934;52.690;6.184;2022-07-29T00:01:43;15.20;99.90
53053;DHT22;38934;52.690;6.184;2022-07-29T00:04:08;15.20;99.90
53053;DHT22;38934;52.690;6.184;2022-07-29T00:06:34;15.10;99.90
53053;DHT22;38934;52.690;6.184;2022-07-29T00:08:59;15.10;99.90
53053;DHT22;38934;52.690;6.184;2022-07-29T00:11:25;15.10;99.90
53053;DHT22;38934;52.690;6.184;2022-07-29T00:13:51;15.10;99.90
53053;DHT22;38934;52.690;6.184;2022-07-29T00:16:16;15.10;99.90
53053;DHT22;38934;52.690;6.184;2022-07-29T00:18:42;15.10;99.90
53053;DHT22;38934;52.690;6.184;2022-07-29T00:21:07;15.10;99.90
53053;DHT22;38934;52.690;6.184;2022-07-29T00:23:33;15.10;99.90
53053;DHT22;38934;52.690;6.184;2022-07-29T00:25:59;15.10;99.90
53053;DHT22;38934;52.690;6.184;2022-07-29T00:28:24;15.00;99.90
53053;DHT22;38934;52.690;6.184;2022-07-29T00:30:50;15.00;99.90
53053;DHT22;38934;52.690;6.184;2022-07-29T00:33:15;15.00;99.90
53053;DHT22;38934;52.690;6.184;2022-07-29T00:35:41;15.00;99.90
53053;DHT22;38934;52.690;6.184;2022-07-29T00:38:11;15.00;99.90
53053;DHT22;38934;52.690;6.184;2022-07-29T00:40:37;15.00;99.90
53053;DHT22;38934;52.690;6.184;2022-07-29T00:43:02;15.00;99.90
53053;DHT22;38934;52.690;6.184;2022-07-29T00:45:28;15.00;99.90
53053;DHT22;38934;52.690;6.184;2022-07-29T00:47:56;15.00;99.90
53053;DHT22;38934;52.690;6.184;2022-07-29T00:50:22;15.00;99.90
53053;DHT22;38934;52.690;6.184;2022-07-29T00:52:49;15.00;99.90
53053;DHT22;38934;52.690;6.184;2022-07-29T00:55:16;14.90;99.90
53053;DHT22;38934;52.690;6.184;2022-07-29T00:57:43;14.90;99.90
53053;DHT22;38934;52.690;6.184;2022-07-29T01:00:11;14.90;99.90
53053;DHT22;38934;52.690;6.184;2022-07-29T01:05:12;14.90;99.90
53053;DHT22;38934;52.690;6.184;2022-07-29T01:07:39;14.90;99.90
53053;DHT22;38934;52.690;6.184;2022-07-29T01:10:06;15.00;99.90
53053;DHT22;38934;52.690;6.184;2022-07-29T01:12:34;14.90;99.90
53053;DHT22;38934;52.690;6.184;2022-07-29T01:15:02;14.90;99.90
53053;DHT22;38934;52.690;6.184;2022-07-29T01:17:31;14.80;99.90
53053;DHT22;38934;52.690;6.184;2022-07-29T01:25:48;14.80;99.90
53053;DHT22;38934;52.690;6.184;2022-07-29T01:32:01;14.90;99.90
53053;DHT22;38934;52.690;6.184;2022-07-29T01:34:23;14.90;99.90
53053;DHT22;38934;52.690;6.184;2022-07-29T01:37:05;14.90;99.90
53053;DHT22;38934;52.690;6.184;2022-07-29T01:39:34;14.80;99.90
53053;DHT22;38934;52.690;6.184;2022-07-29T01:45:06;14.80;99.90
53053;DHT22;38934;52.690;6.184;2022-07-29T01:47:35;14.80;99.90
53053;DHT22;38934;52.690;6.184;2022-07-29T01:50:07;15.10;99.90
53053;DHT22;38934;52.690;6.184;2022-07-29T01:52:49;14.80;99.90
53053;DHT22;38934;52.690;6.184;2022-07-29T01:55:20;14.80;99.90
53053;DHT22;38934;52.690;6.184;2022-07-29T01:57:49;14.70;99.90
53053;DHT22;38934;52.690;6.184;2022-07-29T02:00:16;14.70;99.90
53053;DHT22;38934;52.690;6.184;2022-07-29T02:02:43;14.70;99.90
53053;DHT22;38934;52.690;6.184;2022-07-29T02:05:13;14.70;99.90
53053;DHT22;38934;52.690;6.184;2022-07-29T02:07:41;14.60;99.90
53053;DHT22;38934;52.690;6.184;2022-07-29T02:10:08;14.60;99.90
53053;DHT22;38934;52.690;6.184;2022-07-29T02:12:35;14.60;99.90
53053;DHT22;38934;52.690;6.184;2022-07-29T02:15:03;14.60;99.90
53053;DHT22;38934;52.690;6.184;2022-07-29T02:17:34;14.60;99.90
53053;DHT22;38934;52.690;6.184;2022-07-29T02:20:03;14.60;99.90
53053;DHT22;38934;52.690;6.184;2022-07-29T02:22:31;14.60;99.90
53053;DHT22;38934;52.690;6.184;2022-07-29T02:24:59;14.60;99.90
53053;DHT22;38934;52.690;6.184;2022-07-29T02:27:26;14.60;99.90
53053;DHT22;38934;52.690;6.184;2022-07-29T02:29:54;14.60;99.90
53053;DHT22;38934;52.690;6.184;2022-07-29T02:32:22;14.60;99.90
53053;DHT22;38934;52.690;6.184;2022-07-29T02:34:50;14.60;99.90
53053;DHT22;38934;52.690;6.184;2022-07-29T02:37:17;14.60;99.90
53053;DHT22;38934;52.690;6.184;2022-07-29T02:39:45;14.60;99.90
53053;DHT22;38934;52.690;6.184;2022-07-29T02:42:14;14.60;99.90
53053;DHT22;38934;52.690;6.184;2022-07-29T02:44:41;14.60;99.90
53053;DHT22;38934;52.690;6.184;2022-07-29T02:47:36;14.60;99.90
53053;DHT22;38934;52.690;6.184;2022-07-29T02:50:04;14.60;99.90
53053;DHT22;38934;52.690;6.184;2022-07-29T02:52:53;14.70;99.90
53053;DHT22;38934;52.690;6.184;2022-07-29T02:55:40;14.70;99.90
53053;DHT22;38934;52.690;6.184;2022-07-29T02:58:13;14.50;99.90
53053;DHT22;38934;52.690;6.184;2022-07-29T03:00:41;14.50;99.90
53053;DHT22;38934;52.690;6.184;2022-07-29T03:03:13;14.50;99.90
53053;DHT22;38934;52.690;6.184;2022-07-29T03:05:40;14.50;99.90
53053;DHT22;38934;52.690;6.184;2022-07-29T03:08:07;14.50;99.90
53053;DHT22;38934;52.690;6.184;2022-07-29T03:10:35;14.50;99.90
53053;DHT22;38934;52.690;6.184;2022-07-29T03:13:02;14.50;99.90
53053;DHT22;38934;52.690;6.184;2022-07-29T03:15:29;14.50;99.90
53053;DHT22;38934;52.690;6.184;2022-07-29T03:17:55;14.40;99.90
53053;DHT22;38934;52.690;6.184;2022-07-29T03:20:21;14.40;99.90
53053;DHT22;38934;52.690;6.184;2022-07-29T03:22:47;14.50;99.90
53053;DHT22;38934;52.690;6.184;2022-07-29T03:25:14;14.40;99.90
53053;DHT22;38934;52.690;6.184;2022-07-29T03:27:41;14.40;99.90
53053;DHT22;38934;52.690;6.184;2022-07-29T03:30:08;14.30;99.90
53053;DHT22;38934;52.690;6.184;2022-07-29T03:32:34;14.30;99.90
53053;DHT22;38934;52.690;6.184;2022-07-29T03:35:00;14.30;99.90
53053;DHT22;38934;52.690;6.184;2022-07-29T03:37:26;14.30;99.90
53053;DHT22;38934;52.690;6.184;2022-07-29T03:39:52;14.30;99.90
53053;DHT22;38934;52.690;6.184;2022-07-29T03:42:20;14.30;99.90
53053;DHT22;38934;52.690;6.184;2022-07-29T03:44:48;14.30;99.90
53053;DHT22;38934;52.690;6.184;2022-07-29T03:47:17;14.20;99.90
53053;DHT22;38934;52.690;6.184;2022-07-29T03:49:47;14.30;99.90
53053;DHT22;38934;52.690;6.184;2022-07-29T03:52:13;14.20;99.90
53053;DHT22;38934;52.690;6.184;2022-07-29T03:54:39;14.20;99.90
53053;DHT22;38934;52.690;6.184;2022-07-29T03:57:06;14.20;99.90
53053;DHT22;38934;52.690;6.184;2022-07-29T03:59:33;14.40;99.90
53053;DHT22;38934;52.690;6.184;2022-07-29T04:02:00;14.10;99.90
53053;DHT22;38934;52.690;6.184;2022-07-29T04:04:26;14.10;99.90
53053;DHT22;38934;52.690;6.184;2022-07-29T04:06:52;14.10;99.90
53053;DHT22;38934;52.690;6.184;2022-07-29T04:09:18;14.10;99.90
53053;DHT22;38934;52.690;6.184;2022-07-29T04:11:43;14.00;99.90
53053;DHT22;38934;52.690;6.184;2022-07-29T04:14:10;14.10;99.90
53053;DHT22;38934;52.690;6.184;2022-07-29T04:16:35;14.30;99.90
53053;DHT22;38934;52.690;6.184;2022-07-29T04:19:01;14.00;99.90
53053;DHT22;38934;52.690;6.184;2022-07-29T04:21:27;14.00;99.90
53053;DHT22;38934;52.690;6.184;2022-07-29T04:23:53;14.00;99.90
53053;DHT22;38934;52.690;6.184;2022-07-29T04:26:20;14.00;99.90
53053;DHT22;38934;52.690;6.184;2022-07-29T04:28:45;14.00;99.90
53053;DHT22;38934;52.690;6.184;2022-07-29T04:31:12;13.90;99.90
53053;DHT22;38934;52.690;6.184;2022-07-29T04:33:38;13.90;99.90
53053;DHT22;38934;52.690;6.184;2022-07-29T04:36:04;14.00;99.90
53053;DHT22;38934;52.690;6.184;2022-07-29T04:38:30;13.90;99.90
53053;DHT22;38934;52.690;6.184;2022-07-29T04:40:56;13.90;99.90
53053;DHT22;38934;52.690;6.184;2022-07-29T04:43:21;14.00;99.90
53053;DHT22;38934;52.690;6.184;2022-07-29T04:45:47;13.90;99.90
53053;DHT22;38934;52.690;6.184;2022-07-29T04:48:12;14.00;99.90
53053;DHT22;38934;52.690;6.184;2022-07-29T04:50:39;14.00;99.90
53053;DHT22;38934;52.690;6.184;2022-07-29T04:53:05;14.00;99.90
53053;DHT22;38934;52.690;6.184;2022-07-29T04:55:31;14.00;99.90
53053;DHT22;38934;52.690;6.184;2022-07-29T04:57:56;14.00;99.90
53053;DHT22;38934;52.690;6.184;2022-07-29T05:00:22;14.10;99.90
53053;DHT22;38934;52.690;6.184;2022-07-29T05:02:49;14.10;99.90
53053;DHT22;38934;52.690;6.184;2022-07-29T05:05:14;14.10;99.90
53053;DHT22;38934;52.690;6.184;2022-07-29T05:07:40;14.20;99.90
53053;DHT22;38934;52.690;6.184;2022-07-29T05:10:06;14.30;99.90
53053;DHT22;38934;52.690;6.184;2022-07-29T05:12:32;14.40;99.90
53053;DHT22;38934;52.690;6.184;2022-07-29T05:14:57;14.40;99.90
53053;DHT22;38934;52.690;6.184;2022-07-29T05:17:23;14.50;99.90
53053;DHT22;38934;52.690;6.184;2022-07-29T05:19:48;14.50;99.90
53053;DHT22;38934;52.690;6.184;2022-07-29T05:22:19;14.60;99.90
53053;DHT22;38934;52.690;6.184;2022-07-29T05:24:45;14.70;99.90
53053;DHT22;38934;52.690;6.184;2022-07-29T05:27:11;14.80;99.90
53053;DHT22;38934;52.690;6.184;2022-07-29T05:29:37;14.80;99.90
53053;DHT22;38934;52.690;6.184;2022-07-29T05:32:03;15.00;99.90
53053;DHT22;38934;52.690;6.184;2022-07-29T05:34:29;15.00;99.90
53053;DHT22;38934;52.690;6.184;2022-07-29T05:36:55;15.30;99.90
53053;DHT22;38934;52.690;6.184;2022-07-29T05:39:20;15.20;99.90
53053;DHT22;38934;52.690;6.184;2022-07-29T05:41:46;15.20;99.90
53053;DHT22;38934;52.690;6.184;2022-07-29T05:44:11;15.30;99.90
53053;DHT22;38934;52.690;6.184;2022-07-29T05:46:38;15.40;99.90
53053;DHT22;38934;52.690;6.184;2022-07-29T05:49:04;15.50;99.90
53053;DHT22;38934;52.690;6.184;2022-07-29T05:51:32;15.70;99.90
53053;DHT22;38934;52.690;6.184;2022-07-29T05:53:57;15.90;99.90
53053;DHT22;38934;52.690;6.184;2022-07-29T05:56:23;16.10;99.90
53053;DHT22;38934;52.690;6.184;2022-07-29T05:58:49;16.20;99.90
53053;DHT22;38934;52.690;6.184;2022-07-29T06:01:14;16.20;99.90
53053;DHT22;38934;52.690;6.184;2022-07-29T06:03:41;16.30;99.90
53053;DHT22;38934;52.690;6.184;2022-07-29T06:06:07;16.20;99.90
53053;DHT22;38934;52.690;6.184;2022-07-29T06:08:33;16.20;99.90
53053;DHT22;38934;52.690;6.184;2022-07-29T06:11:00;16.20;99.90
53053;DHT22;38934;52.690;6.184;2022-07-29T06:13:26;16.20;99.90
53053;DHT22;38934;52.690;6.184;2022-07-29T06:15:51;16.20;99.90
53053;DHT22;38934;52.690;6.184;2022-07-29T06:18:17;16.20;99.90
53053;DHT22;38934;52.690;6.184;2022-07-29T06:20:43;16.10;99.90
53053;DHT22;38934;52.690;6.184;2022-07-29T06:23:09;16.10;99.90
53053;DHT22;38934;52.690;6.184;2022-07-29T06:25:35;15.90;99.90
53053;DHT22;38934;52.690;6.184;2022-07-29T06:28:02;15.90;99.90
53053;DHT22;38934;52.690;6.184;2022-07-29T06:30:28;15.80;99.90
53053;DHT22;38934;52.690;6.184;2022-07-29T06:32:54;15.80;99.90
53053;DHT22;38934;52.690;6.184;2022-07-29T06:35:20;15.60;99.90
53053;DHT22;38934;52.690;6.184;2022-07-29T06:37:46;15.60;99.90
53053;DHT22;38934;52.690;6.184;2022-07-29T06:40:12;15.60;99.90
53053;DHT22;38934;52.690;6.184;2022-07-29T06:42:56;15.50;99.90
53053;DHT22;38934;52.690;6.184;2022-07-29T06:45:22;15.50;99.90
53053;DHT22;38934;52.690;6.184;2022-07-29T06:47:49;15.60;99.90
53053;DHT22;38934;52.690;6.184;2022-07-29T06:50:15;15.60;99.90
53053;DHT22;38934;52.690;6.184;2022-07-29T06:52:41;15.70;99.90
53053;DHT22;38934;52.690;6.184;2022-07-29T06:55:07;15.70;99.90
53053;DHT22;38934;52.690;6.184;2022-07-29T06:57:33;15.70;99.90
53053;DHT22;38934;52.690;6.184;2022-07-29T06:59:59;15.70;99.90
53053;DHT22;38934;52.690;6.184;2022-07-29T07:02:25;15.70;99.90
53053;DHT22;38934;52.690;6.184;2022-07-29T07:04:51;15.70;99.90
53053;DHT22;38934;52.690;6.184;2022-07-29T07:07:17;15.60;99.90
53053;DHT22;38934;52.690;6.184;2022-07-29T07:09:43;15.60;99.90
53053;DHT22;38934;52.690;6.184;2022-07-29T07:12:08;15.60;99.90
53053;DHT22;38934;52.690;6.184;2022-07-29T07:14:34;15.60;99.90
53053;DHT22;38934;52.690;6.184;2022-07-29T07:17:00;15.70;99.90
53053;DHT22;38934;52.690;6.184;2022-07-29T07:19:26;15.70;99.90
53053;DHT22;38934;52.690;6.184;2022-07-29T07:21:52;15.80;99.90
53053;DHT22;38934;52.690;6.184;2022-07-29T07:24:18;15.80;99.90
53053;DHT22;38934;52.690;6.184;2022-07-29T07:26:44;15.80;99.90
53053;DHT22;38934;52.690;6.184;2022-07-29T07:29:10;15.80;99.90
53053;DHT22;38934;52.690;6.184;2022-07-29T07:31:36;15.90;99.90
53053;DHT22;38934;52.690;6.184;2022-07-29T07:34:02;15.90;99.90
53053;DHT22;38934;52.690;6.184;2022-07-29T07:36:28;16.10;99.90
53053;DHT22;38934;52.690;6.184;2022-07-29T07:38:53;15.90;99.90
53053;DHT22;38934;52.690;6.184;2022-07-29T07:41:19;15.90;99.90
53053;DHT22;38934;52.690;6.184;2022-07-29T07:43:45;15.70;99.90
53053;DHT22;38934;52.690;6.184;2022-07-29T07:46:10;15.70;99.90
53053;DHT22;38934;52.690;6.184;2022-07-29T07:48:36;15.70;99.90
53053;DHT22;38934;52.690;6.184;2022-07-29T07:51:01;15.70;99.90
53053;DHT22;38934;52.690;6.184;2022-07-29T07:53:27;15.80;99.90
53053;DHT22;38934;52.690;6.184;2022-07-29T07:55:55;15.90;99.90
53053;DHT22;38934;52.690;6.184;2022-07-29T07:58:20;16.00;99.90
53053;DHT22;38934;52.690;6.184;2022-07-29T08:00:46;16.20;99.90
53053;DHT22;38934;52.690;6.184;2022-07-29T08:03:12;16.30;99.90
53053;DHT22;38934;52.690;6.184;2022-07-29T08:05:40;16.40;99.90
53053;DHT22;38934;52.690;6.184;2022-07-29T08:08:06;16.50;99.90
53053;DHT22;38934;52.690;6.184;2022-07-29T08:10:32;16.60;99.90
53053;DHT22;38934;52.690;6.184;2022-07-29T08:13:16;16.70;99.90
53053;DHT22;38934;52.690;6.184;2022-07-29T08:15:42;16.90;99.90
53053;DHT22;38934;52.690;6.184;2022-07-29T08:18:08;17.00;99.90
53053;DHT22;38934;52.690;6.184;2022-07-29T08:20:35;17.30;99.90
53053;DHT22;38934;52.690;6.184;2022-07-29T08:23:02;17.50;99.90
53053;DHT22;38934;52.690;6.184;2022-07-29T08:25:28;17.70;99.90
53053;DHT22;38934;52.690;6.184;2022-07-29T08:27:53;17.70;99.90
53053;DHT22;38934;52.690;6.184;2022-07-29T08:30:19;17.80;99.90
53053;DHT22;38934;52.690;6.184;2022-07-29T08:32:45;17.80;99.90
53053;DHT22;38934;52.690;6.184;2022-07-29T08:35:10;17.80;99.90
53053;DHT22;38934;52.690;6.184;2022-07-29T08:37:36;18.00;99.90
53053;DHT22;38934;52.690;6.184;2022-07-29T08:40:02;17.80;99.90
53053;DHT22;38934;52.690;6.184;2022-07-29T08:42:28;17.70;99.90
53053;DHT22;38934;52.690;6.184;2022-07-29T08:44:53;17.70;99.90
53053;DHT22;38934;52.690;6.184;2022-07-29T08:47:20;17.70;99.90
53053;DHT22;38934;52.690;6.184;2022-07-29T08:49:45;17.80;99.90
53053;DHT22;38934;52.690;6.184;2022-07-29T08:52:13;17.80;99.90
53053;DHT22;38934;52.690;6.184;2022-07-29T08:54:43;17.80;99.90
53053;DHT22;38934;52.690;6.184;2022-07-29T08:57:12;17.90;99.90
53053;DHT22;38934;52.690;6.184;2022-07-29T08:59:40;17.90;99.90
53053;DHT22;38934;52.690;6.184;2022-07-29T09:02:15;17.90;99.90
53053;DHT22;38934;52.690;6.184;2022-07-29T09:04:44;18.20;99.90
53053;DHT22;38934;52.690;6.184;2022-07-29T09:07:14;18.30;99.90
53053;DHT22;38934;52.690;6.184;2022-07-29T09:09:40;18.60;99.90
53053;DHT22;38934;52.690;6.184;2022-07-29T09:12:05;18.60;99.90
53053;DHT22;38934;52.690;6.184;2022-07-29T09:14:33;18.60;99.90
53053;DHT22;38934;52.690;6.184;2022-07-29T09:16:59;18.60;99.90
53053;DHT22;38934;52.690;6.184;2022-07-29T09:19:31;18.60;99.90
53053;DHT22;38934;52.690;6.184;2022-07-29T09:21:59;18.90;99.90
53053;DHT22;38934;52.690;6.184;2022-07-29T09:26:57;19.20;99.90
53053;DHT22;38934;52.690;6.184;2022-07-29T09:29:23;19.40;99.90
53053;DHT22;38934;52.690;6.184;2022-07-29T09:31:52;19.60;99.90
53053;DHT22;38934;52.690;6.184;2022-07-29T09:34:26;19.70;99.90
53053;DHT22;38934;52.690;6.184;2022-07-29T09:36:54;20.20;99.90
53053;DHT22;38934;52.690;6.184;2022-07-29T09:39:34;20.40;99.90
53053;DHT22;38934;52.690;6.184;2022-07-29T09:42:03;20.60;99.90
53053;DHT22;38934;52.690;6.184;2022-07-29T09:44:49;20.80;99.90
53053;DHT22;38934;52.690;6.184;2022-07-29T09:47:16;21.10;99.90
53053;DHT22;38934;52.690;6.184;2022-07-29T09:49:58;21.30;99.90
53053;DHT22;38934;52.690;6.184;2022-07-29T09:52:29;21.40;99.90
53053;DHT22;38934;52.690;6.184;2022-07-29T09:55:08;21.40;99.90
53053;DHT22;38934;52.690;6.184;2022-07-29T09:57:34;21.50;99.90
53053;DHT22;38934;52.690;6.184;2022-07-29T10:00:05;21.40;99.90
53053;DHT22;38934;52.690;6.184;2022-07-29T10:02:36;21.40;99.90
53053;DHT22;38934;52.690;6.184;2022-07-29T10:05:04;21.20;99.90
53053;DHT22;38934;52.690;6.184;2022-07-29T10:10:09;21.00;99.90
53053;DHT22;38934;52.690;6.184;2022-07-29T10:12:48;21.30;99.90
53053;DHT22;38934;52.690;6.184;2022-07-29T10:15:15;21.50;99.90
53053;DHT22;38934;52.690;6.184;2022-07-29T10:17:41;21.50;99.90
53053;DHT22;38934;52.690;6.184;2022-07-29T10:20:08;21.60;99.90
53053;DHT22;38934;52.690;6.184;2022-07-29T10:22:33;21.60;99.90
53053;DHT22;38934;52.690;6.184;2022-07-29T10:24:59;21.70;99.90
53053;DHT22;38934;52.690;6.184;2022-07-29T10:27:25;21.80;99.90
53053;DHT22;38934;52.690;6.184;2022-07-29T10:29:51;22.10;99.90
53053;DHT22;38934;52.690;6.184;2022-07-29T10:32:26;21.80;99.90
53053;DHT22;38934;52.690;6.184;2022-07-29T10:37:37;21.50;99.90
53053;DHT22;38934;52.690;6.184;2022-07-29T10:43:28;21.70;99.90
53053;DHT22;38934;52.690;6.184;2022-07-29T10:45:59;21.50;99.90
53053;DHT22;38934;52.690;6.184;2022-07-29T10:48:26;21.50;99.90
53053;DHT22;38934;52.690;6.184;2022-07-29T10:50:53;21.50;99.90
53053;DHT22;38934;52.690;6.184;2022-07-29T10:53:21;21.70;99.90
53053;DHT22;38934;52.690;6.184;2022-07-29T10:55:47;21.50;99.90
53053;DHT22;38934;52.690;6.184;2022-07-29T10:58:16;21.80;99.90
53053;DHT22;38934;52.690;6.184;2022-07-29T11:00:43;22.20;99.90
53053;DHT22;38934;52.690;6.184;2022-07-29T11:03:09;22.20;99.90
53053;DHT22;38934;52.690;6.184;2022-07-29T11:05:56;22.50;99.90
53053;DHT22;38934;52.690;6.184;2022-07-29T11:08:23;22.60;99.90
53053;DHT22;38934;52.690;6.184;2022-07-29T11:10:50;22.60;99.90
53053;DHT22;38934;52.690;6.184;2022-07-29T11:16:12;22.60;99.90
53053;DHT22;38934;52.690;6.184;2022-07-29T11:21:39;22.70;99.90
53053;DHT22;38934;52.690;6.184;2022-07-29T11:24:19;23.20;99.90
53053;DHT22;38934;52.690;6.184;2022-07-29T11:27:12;23.70;99.90
53053;DHT22;38934;52.690;6.184;2022-07-29T11:29:41;24.10;99.90
53053;DHT22;38934;52.690;6.184;2022-07-29T11:32:14;24.20;99.90
53053;DHT22;38934;52.690;6.184;2022-07-29T11:34:41;24.20;99.90
53053;DHT22;38934;52.690;6.184;2022-07-29T11:39:38;24.50;99.30
53053;DHT22;38934;52.690;6.184;2022-07-29T11:45:03;24.30;97.40
53053;DHT22;38934;52.690;6.184;2022-07-29T11:47:33;24.40;95.70
53053;DHT22;38934;52.690;6.184;2022-07-29T11:50:00;24.40;97.00
53053;DHT22;38934;52.690;6.184;2022-07-29T11:52:41;24.30;95.80
53053;DHT22;38934;52.690;6.184;2022-07-29T11:55:21;24.40;95.30
53053;DHT22;38934;52.690;6.184;2022-07-29T11:57:48;24.60;95.10
53053;DHT22;38934;52.690;6.184;2022-07-29T12:00:37;24.50;94.90
53053;DHT22;38934;52.690;6.184;2022-07-29T12:03:10;24.50;93.80
53053;DHT22;38934;52.690;6.184;2022-07-29T12:05:42;24.50;94.30
53053;DHT22;38934;52.690;6.184;2022-07-29T12:08:12;24.40;93.60
53053;DHT22;38934;52.690;6.184;2022-07-29T12:10:39;24.30;93.30
53053;DHT22;38934;52.690;6.184;2022-07-29T12:13:05;24.20;94.00
53053;DHT22;38934;52.690;6.184;2022-07-29T12:15:31;24.20;93.60
53053;DHT22;38934;52.690;6.184;2022-07-29T12:17:56;24.00;93.90
53053;DHT22;38934;52.690;6.184;2022-07-29T12:20:28;23.90;94.40
53053;DHT22;38934;52.690;6.184;2022-07-29T12:23:05;24.00;94.30
53053;DHT22;38934;52.690;6.184;2022-07-29T12:25:33;23.90;94.40
53053;DHT22;38934;52.690;6.184;2022-07-29T12:28:00;23.90;94.60
53053;DHT22;38934;52.690;6.184;2022-07-29T12:30:46;24.20;94.00
53053;DHT22;38934;52.690;6.184;2022-07-29T12:33:25;24.20;94.00
53053;DHT22;38934;52.690;6.184;2022-07-29T12:35:57;24.30;94.20
53053;DHT22;38934;52.690;6.184;2022-07-29T12:38:23;24.30;94.20
53053;DHT22;38934;52.690;6.184;2022-07-29T12:40:49;24.20;94.40
53053;DHT22;38934;52.690;6.184;2022-07-29T12:43:18;24.10;94.90
53053;DHT22;38934;52.690;6.184;2022-07-29T12:45:47;24.30;95.20
53053;DHT22;38934;52.690;6.184;2022-07-29T12:48:14;24.30;95.60
53053;DHT22;38934;52.690;6.184;2022-07-29T12:51:12;24.30;95.40
53053;DHT22;38934;52.690;6.184;2022-07-29T12:53:39;24.30;95.80
53053;DHT22;38934;52.690;6.184;2022-07-29T12:56:06;24.40;96.40
53053;DHT22;38934;52.690;6.184;2022-07-29T12:58:37;24.50;96.30
53053;DHT22;38934;52.690;6.184;2022-07-29T13:01:13;24.50;95.70
53053;DHT22;38934;52.690;6.184;2022-07-29T13:03:44;24.50;96.10
53053;DHT22;38934;52.690;6.184;2022-07-29T13:09:15;24.50;95.40
53053;DHT22;38934;52.690;6.184;2022-07-29T13:11:44;24.50;95.20
53053;DHT22;38934;52.690;6.184;2022-07-29T13:14:13;24.60;95.30
53053;DHT22;38934;52.690;6.184;2022-07-29T13:17:11;24.70;94.90
53053;DHT22;38934;52.690;6.184;2022-07-29T13:19:46;24.70;93.40
53053;DHT22;38934;52.690;6.184;2022-07-29T13:22:19;24.70;94.40
53053;DHT22;38934;52.690;6.184;2022-07-29T13:24:56;24.70;94.50
53053;DHT22;38934;52.690;6.184;2022-07-29T13:27:25;24.80;94.10
53053;DHT22;38934;52.690;6.184;2022-07-29T13:29:51;25.00;93.10
53053;DHT22;38934;52.690;6.184;2022-07-29T13:32:19;25.00;92.20
53053;DHT22;38934;52.690;6.184;2022-07-29T13:34:45;25.10;91.40
53053;DHT22;38934;52.690;6.184;2022-07-29T13:37:11;25.10;91.90
53053;DHT22;38934;52.690;6.184;2022-07-29T13:39:37;25.30;92.40
53053;DHT22;38934;52.690;6.184;2022-07-29T13:42:03;25.30;92.20
53053;DHT22;38934;52.690;6.184;2022-07-29T13:44:29;25.50;92.50
53053;DHT22;38934;52.690;6.184;2022-07-29T13:46:55;25.70;92.10
53053;DHT22;38934;52.690;6.184;2022-07-29T13:49:21;25.70;91.80
53053;DHT22;38934;52.690;6.184;2022-07-29T13:51:48;25.70;91.30
53053;DHT22;38934;52.690;6.184;2022-07-29T13:54:14;25.90;91.00
53053;DHT22;38934;52.690;6.184;2022-07-29T13:56:39;25.90;90.50
53053;DHT22;38934;52.690;6.184;2022-07-29T13:59:05;25.90;89.90
53053;DHT22;38934;52.690;6.184;2022-07-29T14:01:31;25.90;89.90
53053;DHT22;38934;52.690;6.184;2022-07-29T14:03:57;25.80;89.70
53053;DHT22;38934;52.690;6.184;2022-07-29T14:06:22;25.90;90.00
53053;DHT22;38934;52.690;6.184;2022-07-29T14:08:48;25.90;89.10
53053;DHT22;38934;52.690;6.184;2022-07-29T14:11:14;25.90;88.50
53053;DHT22;38934;52.690;6.184;2022-07-29T14:13:39;25.90;88.20
53053;DHT22;38934;52.690;6.184;2022-07-29T14:16:05;25.80;87.90
53053;DHT22;38934;52.690;6.184;2022-07-29T14:18:32;25.80;88.60
53053;DHT22;38934;52.690;6.184;2022-07-29T14:20:58;25.90;88.30
53053;DHT22;38934;52.690;6.184;2022-07-29T14:23:23;26.00;87.20
53053;DHT22;38934;52.690;6.184;2022-07-29T14:25:49;26.10;86.90
53053;DHT22;38934;52.690;6.184;2022-07-29T14:28:14;26.20;86.70
53053;DHT22;38934;52.690;6.184;2022-07-29T14:30:40;26.10;87.00
53053;DHT22;38934;52.690;6.184;2022-07-29T14:33:06;26.20;85.90
53053;DHT22;38934;52.690;6.184;2022-07-29T14:35:31;26.30;85.20
53053;DHT22;38934;52.690;6.184;2022-07-29T14:37:57;26.20;83.90
53053;DHT22;38934;52.690;6.184;2022-07-29T14:40:22;26.10;84.00
53053;DHT22;38934;52.690;6.184;2022-07-29T14:42:48;26.20;84.60
53053;DHT22;38934;52.690;6.184;2022-07-29T14:45:14;26.30;83.80
53053;DHT22;38934;52.690;6.184;2022-07-29T14:47:40;26.30;82.30
53053;DHT22;38934;52.690;6.184;2022-07-29T14:50:06;26.40;82.40
53053;DHT22;38934;52.690;6.184;2022-07-29T14:52:32;26.50;83.00
53053;DHT22;38934;52.690;6.184;2022-07-29T14:54:58;26.60;82.20
53053;DHT22;38934;52.690;6.184;2022-07-29T14:57:23;26.60;81.60
53053;DHT22;38934;52.690;6.184;2022-07-29T14:59:49;26.70;81.50
53053;DHT22;38934;52.690;6.184;2022-07-29T15:02:14;26.60;79.50
53053;DHT22;38934;52.690;6.184;2022-07-29T15:04:40;26.70;76.40
53053;DHT22;38934;52.690;6.184;2022-07-29T15:07:05;26.80;76.80
53053;DHT22;38934;52.690;6.184;2022-07-29T15:09:31;26.70;77.30
53053;DHT22;38934;52.690;6.184;2022-07-29T15:11:56;26.70;77.60
53053;DHT22;38934;52.690;6.184;2022-07-29T15:14:22;26.90;76.60
53053;DHT22;38934;52.690;6.184;2022-07-29T15:16:48;26.90;76.70
53053;DHT22;38934;52.690;6.184;2022-07-29T15:19:13;26.90;75.20
53053;DHT22;38934;52.690;6.184;2022-07-29T15:21:39;26.80;73.70
53053;DHT22;38934;52.690;6.184;2022-07-29T15:24:05;26.80;72.60
53053;DHT22;38934;52.690;6.184;2022-07-29T15:26:32;26.80;72.10
53053;DHT22;38934;52.690;6.184;2022-07-29T15:28:58;26.80;72.00
53053;DHT22;38934;52.690;6.184;2022-07-29T15:31:24;26.90;71.30
53053;DHT22;38934;52.690;6.184;2022-07-29T15:33:50;26.70;70.90
53053;DHT22;38934;52.690;6.184;2022-07-29T15:36:15;26.70;70.50
53053;DHT22;38934;52.690;6.184;2022-07-29T15:38:41;26.60;70.60
53053;DHT22;38934;52.690;6.184;2022-07-29T15:41:07;26.90;70.60
53053;DHT22;38934;52.690;6.184;2022-07-29T15:43:33;27.00;70.50
53053;DHT22;38934;52.690;6.184;2022-07-29T15:46:00;27.00;70.70
53053;DHT22;38934;52.690;6.184;2022-07-29T15:48:44;26.90;69.50
53053;DHT22;38934;52.690;6.184;2022-07-29T15:51:10;27.00;69.60
53053;DHT22;38934;52.690;6.184;2022-07-29T15:53:35;26.90;69.20
53053;DHT22;38934;52.690;6.184;2022-07-29T15:56:01;26.70;68.60
53053;DHT22;38934;52.690;6.184;2022-07-29T15:58:27;26.80;68.70
53053;DHT22;38934;52.690;6.184;2022-07-29T16:00:52;26.90;69.00
53053;DHT22;38934;52.690;6.184;2022-07-29T16:03:18;26.80;68.80
53053;DHT22;38934;52.690;6.184;2022-07-29T16:05:45;26.70;68.60
53053;DHT22;38934;52.690;6.184;2022-07-29T16:08:10;26.60;68.70
53053;DHT22;38934;52.690;6.184;2022-07-29T16:10:36;26.60;69.10
53053;DHT22;38934;52.690;6.184;2022-07-29T16:13:02;26.70;69.40
53053;DHT22;38934;52.690;6.184;2022-07-29T16:15:27;26.70;69.20